Amsterdam, New York
Current Conditions -  °F | °C
As of 10:55 AM on Friday 31 Oct 2014 (Local Time) from KNY0 Reporting Station
Overcast Overcast  
Wind Chill: 37°   Ceiling: 500
Heat Index: 37°   Visibility: 10mi
Dew Point: 36°   Wind: 0mph
Humidity: 96%   Direction: NA
Pressure: 30.03"   Gusts: NA
Location:  42.94°N, 74.19°W
Report Text: KNY0 311455Z AUTO 00000KT 10SM OVC005 03/02 A3003 RMK AO2 T00260020
Loading
Personal Weather Stations






























Interactive Weather Map New forecast layout! Learn more

10-Day Weather Forecast

Advertisements
Track Severe Weather on mobile